createdAt,value
2022-09-12T00:01:21.459Z,15.77
2022-09-12T00:03:48.170Z,16.15
2022-09-12T00:06:22.613Z,12.75
2022-09-12T00:11:16.882Z,14.32
2022-09-12T00:13:44.052Z,15.80
2022-09-12T00:16:22.605Z,16.30
2022-09-12T00:18:49.308Z,17.15
2022-09-12T00:21:18.102Z,15.23
2022-09-12T00:23:45.394Z,16.73
2022-09-12T00:26:12.824Z,16.40
2022-09-12T00:28:40.322Z,17.38
2022-09-12T00:31:20.284Z,18.08
2022-09-12T00:33:46.995Z,15.63
2022-09-12T00:36:20.137Z,15.65
2022-09-12T00:38:47.817Z,15.48
2022-09-12T00:41:27.382Z,24.55
2022-09-12T00:43:59.802Z,18.20
2022-09-12T00:46:44.045Z,13.02
2022-09-12T00:49:28.210Z,16.13
2022-09-12T00:52:10.139Z,16.88
2022-09-12T00:55:05.635Z,21.60
2022-09-12T00:57:38.112Z,19.67
2022-09-12T01:00:15.607Z,16.50
2022-09-12T01:02:45.247Z,18.95
2022-09-12T01:05:13.514Z,17.30
2022-09-12T01:07:41.510Z,17.10
2022-09-12T01:10:09.745Z,17.10
2022-09-12T01:12:40.802Z,14.23
2022-09-12T01:15:08.027Z,13.75
2022-09-12T01:17:58.824Z,18.02
2022-09-12T01:20:43.628Z,16.23
2022-09-12T01:23:39.387Z,19.52
2022-09-12T01:26:38.939Z,19.45
2022-09-12T01:29:15.109Z,19.73
2022-09-12T01:31:54.188Z,18.23
2022-09-12T01:34:53.130Z,18.10
2022-09-12T01:37:25.591Z,18.60
2022-09-12T01:40:21.619Z,20.90
2022-09-12T01:45:46.234Z,21.83
2022-09-12T01:48:36.996Z,20.05
2022-09-12T01:51:13.264Z,18.30
2022-09-12T01:53:44.789Z,21.08
2022-09-12T01:56:22.382Z,23.75
2022-09-12T01:59:02.394Z,21.75
2022-09-12T02:01:33.742Z,16.15
2022-09-12T02:04:18.235Z,17.38
2022-09-12T02:06:56.411Z,20.05
2022-09-12T02:09:29.320Z,17.73
2022-09-12T02:12:01.416Z,16.98
2022-09-12T02:14:53.590Z,15.25
2022-09-12T02:17:23.218Z,16.38
2022-09-12T02:19:54.894Z,18.08
2022-09-12T02:22:24.324Z,19.38
2022-09-12T02:24:54.538Z,17.58
2022-09-12T02:27:46.774Z,16.90
2022-09-12T02:30:17.552Z,13.13
2022-09-12T02:33:14.571Z,13.23
2022-09-12T02:35:53.113Z,14.50
2022-09-12T02:38:30.014Z,16.65
2022-09-12T02:40:57.058Z,13.80
2022-09-12T02:43:23.709Z,13.13
2022-09-12T02:45:50.339Z,15.57
2022-09-12T02:48:24.490Z,17.55
2022-09-12T02:50:51.376Z,17.33
2022-09-12T02:53:18.404Z,17.85
2022-09-12T02:55:45.120Z,19.10
2022-09-12T02:58:19.073Z,19.52
2022-09-12T03:01:08.372Z,18.05
2022-09-12T03:03:43.456Z,17.95
2022-09-12T03:09:01.326Z,19.23
2022-09-12T03:11:49.484Z,16.95
2022-09-12T03:14:31.985Z,18.08
2022-09-12T03:17:18.314Z,18.65
2022-09-12T03:20:09.355Z,17.13
2022-09-12T03:22:46.200Z,20.05
2022-09-12T03:25:17.202Z,19.63
2022-09-12T03:27:54.182Z,19.67
2022-09-12T03:30:20.732Z,15.85
2022-09-12T03:32:50.580Z,18.40
2022-09-12T03:35:23.013Z,19.25
2022-09-12T03:37:51.511Z,15.73
2022-09-12T03:40:18.065Z,16.95
2022-09-12T03:42:44.670Z,18.05
2022-09-12T03:45:11.657Z,16.63
2022-09-12T03:47:38.370Z,23.17
2022-09-12T03:50:06.433Z,16.83
2022-09-12T03:52:33.359Z,16.10
2022-09-12T03:54:59.805Z,19.88
2022-09-12T03:57:26.400Z,16.60
2022-09-12T03:59:52.766Z,17.25
2022-09-12T04:02:19.480Z,17.13
2022-09-12T04:04:48.142Z,19.42
2022-09-12T04:07:16.696Z,19.88
2022-09-12T04:09:43.150Z,16.63
2022-09-12T04:12:09.615Z,13.18
2022-09-12T04:14:38.471Z,16.75
2022-09-12T04:17:05.063Z,22.00
2022-09-12T04:19:31.517Z,20.55
2022-09-12T04:21:58.264Z,17.25
2022-09-12T04:24:24.647Z,17.38
2022-09-12T04:26:51.197Z,17.90
2022-09-12T04:29:17.601Z,18.73
2022-09-12T04:31:44.411Z,17.67
2022-09-12T04:34:10.898Z,16.58
2022-09-12T04:36:37.461Z,17.75
2022-09-12T04:39:05.438Z,17.10
2022-09-12T04:41:35.248Z,20.40
2022-09-12T04:44:10.141Z,16.23
2022-09-12T04:46:40.171Z,16.50
2022-09-12T04:49:06.696Z,18.23
2022-09-12T04:51:35.889Z,19.40
2022-09-12T04:54:08.171Z,17.65
2022-09-12T04:56:38.620Z,27.42
2022-09-12T04:59:05.312Z,19.63
2022-09-12T05:01:31.734Z,20.35
2022-09-12T05:03:59.789Z,19.08
2022-09-12T05:06:29.938Z,19.60
2022-09-12T05:08:58.489Z,21.98
2022-09-12T05:11:59.754Z,20.38
2022-09-12T05:14:17.537Z,18.80
2022-09-12T05:16:48.559Z,23.13
2022-09-12T05:19:15.801Z,22.48
2022-09-12T05:21:42.272Z,23.48
2022-09-12T05:24:11.315Z,19.60
2022-09-12T05:26:38.040Z,22.17
2022-09-12T05:29:06.055Z,25.70
2022-09-12T05:31:32.656Z,22.25
2022-09-12T05:33:59.155Z,21.90
2022-09-12T05:36:29.116Z,19.73
2022-09-12T05:38:56.320Z,22.02
2022-09-12T05:41:25.484Z,17.73
2022-09-12T05:43:56.470Z,19.27
2022-09-12T05:46:26.896Z,23.98
2022-09-12T05:48:56.325Z,20.80
2022-09-12T05:51:28.492Z,17.27
2022-09-12T05:53:59.907Z,21.30
2022-09-12T05:56:28.925Z,19.80
2022-09-12T05:58:56.462Z,17.70
2022-09-12T06:01:23.295Z,17.92
2022-09-12T06:03:52.410Z,18.00
2022-09-12T06:06:21.525Z,19.02
2022-09-12T06:08:50.394Z,20.65
2022-09-12T06:11:28.714Z,20.40
2022-09-12T06:13:58.958Z,17.92
2022-09-12T06:16:27.963Z,21.05
2022-09-12T06:18:57.043Z,25.88
2022-09-12T06:21:26.422Z,22.10
2022-09-12T06:23:55.903Z,24.48
2022-09-12T06:26:25.460Z,25.17
2022-09-12T06:28:53.932Z,27.92
2022-09-12T06:31:26.086Z,23.95
2022-09-12T06:33:54.251Z,22.20
2022-09-12T06:36:26.373Z,23.42
2022-09-12T06:39:14.178Z,20.80
2022-09-12T06:41:43.939Z,25.45
2022-09-12T06:44:14.880Z,28.77
2022-09-12T06:46:42.045Z,20.35
2022-09-12T06:49:08.586Z,20.98
2022-09-12T06:51:36.246Z,17.67
2022-09-12T06:54:03.734Z,23.08
2022-09-12T06:56:30.268Z,21.15
2022-09-12T06:58:58.208Z,23.98
2022-09-12T07:01:27.930Z,17.92
2022-09-12T07:04:03.081Z,20.45
2022-09-12T07:06:34.849Z,20.15
2022-09-12T07:09:04.581Z,22.17
2022-09-12T07:11:36.533Z,18.30
2022-09-12T07:14:04.747Z,18.38
2022-09-12T07:16:32.173Z,19.58
2022-09-12T07:19:00.918Z,19.45
2022-09-12T07:21:28.793Z,16.17
2022-09-12T07:23:57.695Z,18.67
2022-09-12T07:26:26.834Z,21.50
2022-09-12T07:29:03.725Z,19.38
2022-09-12T07:31:39.830Z,17.60
2022-09-12T07:34:06.770Z,13.35
2022-09-12T07:36:33.808Z,13.63
2022-09-12T07:39:00.545Z,16.63
2022-09-12T07:41:29.405Z,17.35
2022-09-12T07:43:58.184Z,18.17
2022-09-12T07:46:25.789Z,17.17
2022-09-12T07:48:54.029Z,13.50
2022-09-12T07:51:21.672Z,15.27
2022-09-12T07:53:49.121Z,21.35
2022-09-12T07:56:16.394Z,16.98
2022-09-12T07:58:43.933Z,18.15
2022-09-12T08:01:23.208Z,12.00
2022-09-12T08:03:53.553Z,12.63
2022-09-12T08:06:24.066Z,12.23
2022-09-12T08:08:51.156Z,15.20
2022-09-12T08:11:20.195Z,14.65
2022-09-12T08:13:51.689Z,17.20
2022-09-12T08:16:22.438Z,12.97
2022-09-12T08:18:49.471Z,13.07
2022-09-12T08:21:24.650Z,12.40
2022-09-12T08:26:25.735Z,13.80
2022-09-12T08:28:53.167Z,14.50
2022-09-12T08:31:21.748Z,14.90
2022-09-12T08:33:48.433Z,11.68
2022-09-12T08:36:17.366Z,12.77
2022-09-12T08:38:46.534Z,11.52
2022-09-12T08:41:19.245Z,12.43
2022-09-12T08:44:04.549Z,14.80
2022-09-12T08:46:53.861Z,12.15
2022-09-12T08:49:31.002Z,15.30
2022-09-12T08:52:00.993Z,11.98
2022-09-12T08:54:30.244Z,10.63
2022-09-12T08:57:02.730Z,11.50
2022-09-12T08:59:42.297Z,12.73
2022-09-12T09:02:21.703Z,12.00
2022-09-12T09:05:12.262Z,11.15
2022-09-12T09:08:08.735Z,10.10
2022-09-12T09:11:10.600Z,12.95
2022-09-12T09:14:20.851Z,11.60
2022-09-12T09:16:53.573Z,12.80
2022-09-12T09:19:32.461Z,11.18
2022-09-12T09:22:13.256Z,14.07
2022-09-12T09:24:53.150Z,12.00
2022-09-12T09:27:39.921Z,9.60
2022-09-12T09:30:19.200Z,10.25
2022-09-12T09:32:55.693Z,10.90
2022-09-12T09:35:26.812Z,13.82
2022-09-12T09:38:03.443Z,11.65
2022-09-12T09:40:41.186Z,10.77
2022-09-12T09:43:13.520Z,10.73
2022-09-12T09:45:44.500Z,10.07
2022-09-12T09:48:23.421Z,10.70
2022-09-12T09:50:50.698Z,9.48
2022-09-12T09:53:44.716Z,11.57
2022-09-12T09:56:33.008Z,10.55
2022-09-12T09:59:29.978Z,9.82
2022-09-12T10:02:14.762Z,11.23
2022-09-12T10:04:53.173Z,11.25
2022-09-12T10:07:21.790Z,15.05
2022-09-12T10:10:24.511Z,9.98
2022-09-12T10:12:52.005Z,9.88
2022-09-12T10:15:27.543Z,9.48
2022-09-12T10:17:57.039Z,10.93
2022-09-12T10:20:44.541Z,9.38
2022-09-12T10:23:37.198Z,8.75
2022-09-12T10:26:09.149Z,13.05
2022-09-12T10:28:40.379Z,9.55
2022-09-12T10:31:09.834Z,10.23
2022-09-12T10:33:47.623Z,10.20
2022-09-12T10:36:15.535Z,8.43
2022-09-12T10:38:50.996Z,7.47
2022-09-12T10:41:18.634Z,9.07
2022-09-12T10:43:45.787Z,8.40
2022-09-12T10:46:15.705Z,6.88
2022-09-12T10:48:49.938Z,6.75
2022-09-12T10:51:25.425Z,12.20
2022-09-12T10:53:54.633Z,6.18
2022-09-12T10:56:24.201Z,7.10
2022-09-12T10:58:59.040Z,12.48
2022-09-12T11:01:31.402Z,6.85
2022-09-12T11:04:32.064Z,8.30
2022-09-12T11:07:22.925Z,8.55
2022-09-12T11:09:52.877Z,7.47
2022-09-12T11:12:38.698Z,7.20
2022-09-12T11:15:19.990Z,8.00
2022-09-12T11:18:10.016Z,7.07
2022-09-12T11:20:59.035Z,11.32
2022-09-12T11:24:02.248Z,8.40
2022-09-12T11:26:31.578Z,6.50
2022-09-12T11:29:16.468Z,6.78
2022-09-12T11:31:53.851Z,6.10
2022-09-12T11:34:53.849Z,7.78
2022-09-12T11:37:57.988Z,5.85
2022-09-12T11:40:42.828Z,5.63
2022-09-12T11:43:28.022Z,5.72
2022-09-12T11:45:57.063Z,5.47
2022-09-12T11:48:37.792Z,6.28
2022-09-12T11:51:07.969Z,5.65
2022-09-12T11:53:40.789Z,6.30
2022-09-12T11:56:16.937Z,7.97
2022-09-12T11:58:51.590Z,5.93
2022-09-12T12:01:25.032Z,5.45
2022-09-12T12:03:53.522Z,6.55
2022-09-12T12:06:33.747Z,8.27
2022-09-12T12:09:00.269Z,7.13
2022-09-12T12:11:41.886Z,6.50
2022-09-12T12:14:22.556Z,5.97
2022-09-12T12:16:50.221Z,6.15
2022-09-12T12:19:16.563Z,5.68
2022-09-12T12:21:50.088Z,6.55
2022-09-12T12:24:20.693Z,5.53
2022-09-12T12:26:53.138Z,6.70
2022-09-12T12:29:19.459Z,5.00
2022-09-12T12:32:04.108Z,7.57
2022-09-12T12:34:38.181Z,5.45
2022-09-12T12:37:19.917Z,3.97
2022-09-12T12:39:53.766Z,4.35
2022-09-12T12:42:32.741Z,4.45
2022-09-12T12:45:00.101Z,3.08
2022-09-12T12:47:28.397Z,4.05
2022-09-12T12:50:26.441Z,4.32
2022-09-12T12:53:03.145Z,4.40
2022-09-12T12:55:35.661Z,3.35
2022-09-12T12:58:03.964Z,5.05
2022-09-12T13:00:32.439Z,2.92
2022-09-12T13:03:19.215Z,5.97
2022-09-12T13:05:59.518Z,4.28
2022-09-12T13:08:34.550Z,4.20
2022-09-12T13:11:15.924Z,4.70
2022-09-12T13:14:03.149Z,3.60
2022-09-12T13:16:38.040Z,3.33
2022-09-12T13:22:01.044Z,4.65
2022-09-12T13:24:28.199Z,4.68
2022-09-12T13:26:57.582Z,4.47
2022-09-12T13:29:26.691Z,4.13
2022-09-12T13:32:03.098Z,4.13
2022-09-12T13:34:33.832Z,3.88
2022-09-12T13:37:12.222Z,5.75
2022-09-12T13:39:38.766Z,3.97
2022-09-12T13:42:20.256Z,4.22
2022-09-12T13:44:50.976Z,3.80
2022-09-12T13:47:27.282Z,5.53
2022-09-12T13:49:54.864Z,4.07
2022-09-12T13:52:25.486Z,3.90
2022-09-12T13:54:55.269Z,4.53
2022-09-12T13:57:41.088Z,4.05
2022-09-12T14:00:19.347Z,4.20
2022-09-12T14:02:48.009Z,4.75
2022-09-12T14:05:22.162Z,3.38
2022-09-12T14:07:53.236Z,4.87
2022-09-12T14:10:31.032Z,5.07
2022-09-12T14:13:02.903Z,5.03
2022-09-12T14:15:32.485Z,4.88
2022-09-12T14:18:01.942Z,4.38
2022-09-12T14:20:33.464Z,5.38
2022-09-12T14:23:28.036Z,4.28
2022-09-12T14:25:56.346Z,4.82
2022-09-12T14:28:23.957Z,5.25
2022-09-12T14:31:03.076Z,4.80
2022-09-12T14:33:33.771Z,6.07
2022-09-12T14:36:06.179Z,4.30
2022-09-12T14:38:55.349Z,5.50
2022-09-12T14:41:25.966Z,4.53
2022-09-12T14:44:01.601Z,4.85
2022-09-12T14:46:33.859Z,4.35
2022-09-12T14:49:09.021Z,6.30
2022-09-12T14:51:38.358Z,3.70
2022-09-12T14:54:05.061Z,4.05
2022-09-12T14:56:44.488Z,4.47
2022-09-12T14:59:34.145Z,4.43
2022-09-12T15:02:22.405Z,4.32
2022-09-12T15:05:14.323Z,3.60
2022-09-12T15:07:43.913Z,5.55
2022-09-12T15:10:37.597Z,9.32
2022-09-12T15:13:14.146Z,4.30
2022-09-12T15:15:42.914Z,4.78
2022-09-12T15:18:09.939Z,4.40
2022-09-12T15:20:38.969Z,7.18
2022-09-12T15:23:10.833Z,4.05
2022-09-12T15:25:37.248Z,6.43
2022-09-12T15:28:15.242Z,4.20
2022-09-12T15:30:41.602Z,5.13
2022-09-12T15:33:09.360Z,3.70
2022-09-12T15:35:35.741Z,4.00
2022-09-12T15:38:02.289Z,4.30
2022-09-12T15:40:28.664Z,7.05
2022-09-12T15:42:55.178Z,5.57
2022-09-12T15:45:25.926Z,7.60
2022-09-12T15:47:52.442Z,4.47
2022-09-12T15:50:19.096Z,7.03
2022-09-12T15:52:45.571Z,4.80
2022-09-12T15:55:17.715Z,4.25
2022-09-12T15:57:44.416Z,4.38
2022-09-12T16:00:11.924Z,4.35
2022-09-12T16:02:38.518Z,4.63
2022-09-12T16:05:06.056Z,3.95
2022-09-12T16:07:32.592Z,4.63
2022-09-12T16:09:59.038Z,5.05
2022-09-12T16:12:25.436Z,4.95
2022-09-12T16:14:51.966Z,3.63
2022-09-12T16:17:18.316Z,4.05
2022-09-12T16:19:44.891Z,4.18
2022-09-12T16:22:11.337Z,4.72
2022-09-12T16:24:39.292Z,3.63
2022-09-12T16:27:06.187Z,3.75
2022-09-12T16:29:32.698Z,3.88
2022-09-12T16:31:59.165Z,4.97
2022-09-12T16:34:25.734Z,3.88
2022-09-12T16:36:52.775Z,3.47
2022-09-12T16:39:19.292Z,4.18
2022-09-12T16:41:45.899Z,12.73
2022-09-12T16:44:12.397Z,3.80
2022-09-12T16:46:38.909Z,4.25
2022-09-12T16:49:06.196Z,5.40
2022-09-12T16:51:37.559Z,4.13
2022-09-12T16:54:04.474Z,4.40
2022-09-12T16:56:30.949Z,4.22
2022-09-12T16:58:57.487Z,4.35
2022-09-12T17:01:26.168Z,4.25
2022-09-12T17:03:57.755Z,6.65
2022-09-12T17:06:25.474Z,3.08
2022-09-12T17:08:54.174Z,3.95
2022-09-12T17:11:22.494Z,3.60
2022-09-12T17:14:11.017Z,4.03
2022-09-12T17:16:45.933Z,4.40
2022-09-12T17:19:18.196Z,4.72
2022-09-12T17:21:47.470Z,5.00
2022-09-12T17:24:13.885Z,3.70
2022-09-12T17:26:40.376Z,3.92
2022-09-12T17:29:06.785Z,3.40
2022-09-12T17:31:33.470Z,3.67
2022-09-12T17:34:01.147Z,3.03
2022-09-12T17:36:28.422Z,5.43
2022-09-12T17:38:55.438Z,3.70
2022-09-12T17:41:24.467Z,3.55
2022-09-12T17:43:57.448Z,3.63
2022-09-12T17:46:33.405Z,5.03
2022-09-12T17:49:00.937Z,4.72
2022-09-12T17:51:30.622Z,4.78
2022-09-12T17:54:10.191Z,4.72
2022-09-12T17:56:37.612Z,5.07
2022-09-12T17:59:05.906Z,3.60
2022-09-12T18:01:51.450Z,4.07
2022-09-12T18:04:19.853Z,3.67
2022-09-12T18:06:48.684Z,4.53
2022-09-12T18:09:17.941Z,4.50
2022-09-12T18:11:45.286Z,4.72
2022-09-12T18:14:14.165Z,4.53
2022-09-12T18:16:42.005Z,4.30
2022-09-12T18:19:08.777Z,4.03
2022-09-12T18:21:35.837Z,5.90
2022-09-12T18:24:03.042Z,7.47
2022-09-12T18:26:30.370Z,3.80
2022-09-12T18:28:57.403Z,4.97
2022-09-12T18:31:26.936Z,4.85
2022-09-12T18:33:53.370Z,5.20
2022-09-12T18:36:20.380Z,5.28
2022-09-12T18:38:47.925Z,4.60
2022-09-12T18:41:20.315Z,7.57
2022-09-12T18:43:48.114Z,4.57
2022-09-12T18:46:17.480Z,4.10
2022-09-12T18:48:45.096Z,3.85
2022-09-12T18:51:17.908Z,5.65
2022-09-12T18:53:53.017Z,5.18
2022-09-12T18:56:20.624Z,4.30
2022-09-12T18:58:52.211Z,3.88
2022-09-12T19:01:22.693Z,4.53
2022-09-12T19:03:49.782Z,4.38
2022-09-12T19:06:24.379Z,5.15
2022-09-12T19:08:52.753Z,4.28
2022-09-12T19:11:20.583Z,4.90
2022-09-12T19:13:50.364Z,4.93
2022-09-12T19:16:19.323Z,5.95
2022-09-12T19:18:49.419Z,4.80
2022-09-12T19:21:19.522Z,4.88
2022-09-12T19:23:46.223Z,4.57
2022-09-12T19:26:15.882Z,5.25
2022-09-12T19:28:42.652Z,4.15
2022-09-12T19:31:11.634Z,4.35
2022-09-12T19:33:38.895Z,4.72
2022-09-12T19:36:27.290Z,4.63
2022-09-12T19:38:57.737Z,6.05
2022-09-12T19:41:24.232Z,6.10
2022-09-12T19:43:50.641Z,4.25
2022-09-12T19:46:19.488Z,5.93
2022-09-12T19:48:46.807Z,5.22
2022-09-12T19:51:15.391Z,5.47
2022-09-12T19:53:42.621Z,5.63
2022-09-12T19:56:11.804Z,5.57
2022-09-12T19:58:40.758Z,5.50
2022-09-12T20:01:20.471Z,9.40
2022-09-12T20:03:47.428Z,4.97
2022-09-12T20:06:16.464Z,4.43
2022-09-12T20:08:43.925Z,5.40
2022-09-12T20:11:13.063Z,5.65
2022-09-12T20:13:40.246Z,4.45
2022-09-12T20:16:19.029Z,5.75
2022-09-12T20:18:49.341Z,4.78
2022-09-12T20:21:18.763Z,5.65
2022-09-12T20:23:46.671Z,4.45
2022-09-12T20:26:13.721Z,6.13
2022-09-12T20:28:41.578Z,5.32
2022-09-12T20:31:12.547Z,4.57
2022-09-12T20:33:39.802Z,6.75
2022-09-12T20:36:10.321Z,5.40
2022-09-12T20:38:37.174Z,6.13
2022-09-12T20:41:05.670Z,5.32
2022-09-12T20:43:32.108Z,5.35
2022-09-12T20:45:59.740Z,5.45
2022-09-12T20:48:26.901Z,6.57
2022-09-12T20:50:53.512Z,5.82
2022-09-12T20:53:20.131Z,9.73
2022-09-12T20:55:51.431Z,5.45
2022-09-12T20:58:19.206Z,6.22
2022-09-12T21:00:46.471Z,5.43
2022-09-12T21:03:13.829Z,6.72
2022-09-12T21:05:44.525Z,7.72
2022-09-12T21:08:11.583Z,4.90
2022-09-12T21:10:40.797Z,7.93
2022-09-12T21:13:09.135Z,6.47
2022-09-12T21:15:36.485Z,5.38
2022-09-12T21:18:02.908Z,5.20
2022-09-12T21:20:30.116Z,5.72
2022-09-12T21:22:56.461Z,5.25
2022-09-12T21:25:23.050Z,4.90
2022-09-12T21:27:49.449Z,5.90
2022-09-12T21:30:16.011Z,5.57
2022-09-12T21:32:42.416Z,6.22
2022-09-12T21:35:09.119Z,5.90
2022-09-12T21:37:35.663Z,5.22
2022-09-12T21:40:02.305Z,6.82
2022-09-12T21:42:28.904Z,4.13
2022-09-12T21:44:55.376Z,5.55
2022-09-12T21:47:21.893Z,5.10
2022-09-12T21:49:48.305Z,5.53
2022-09-12T21:52:14.824Z,8.50
2022-09-12T21:54:41.188Z,4.65
2022-09-12T21:57:07.913Z,4.47
2022-09-12T21:59:34.275Z,4.57
2022-09-12T22:02:00.803Z,7.95
2022-09-12T22:04:27.271Z,6.20
2022-09-12T22:06:53.809Z,6.80
2022-09-12T22:09:20.202Z,5.00
2022-09-12T22:11:46.889Z,4.88
2022-09-12T22:14:13.339Z,6.85
2022-09-12T22:16:40.363Z,10.48
2022-09-12T22:19:06.837Z,4.47
2022-09-12T22:21:33.382Z,6.07
2022-09-12T22:24:18.291Z,7.53
2022-09-12T22:26:46.257Z,3.90
2022-09-12T22:29:13.477Z,5.10
2022-09-12T22:31:40.150Z,7.07
2022-09-12T22:34:07.214Z,5.70
2022-09-12T22:36:38.199Z,4.63
2022-09-12T22:39:06.032Z,6.40
2022-09-12T22:41:32.459Z,4.88
2022-09-12T22:43:59.219Z,4.68
2022-09-12T22:46:26.026Z,5.97
2022-09-12T22:48:52.669Z,6.10
2022-09-12T22:51:19.108Z,3.90
2022-09-12T22:53:45.993Z,4.50
2022-09-12T22:56:12.448Z,5.15
2022-09-12T22:58:38.928Z,4.45
2022-09-12T23:01:06.372Z,5.40
2022-09-12T23:03:33.602Z,3.58
2022-09-12T23:06:00.089Z,4.38
2022-09-12T23:08:29.428Z,9.52
2022-09-12T23:11:02.668Z,3.88
2022-09-12T23:13:29.169Z,4.35
2022-09-12T23:15:59.999Z,4.30
2022-09-12T23:18:26.785Z,3.97
2022-09-12T23:21:01.641Z,4.50
2022-09-12T23:23:29.129Z,4.68
2022-09-12T23:26:30.329Z,6.25
2022-09-12T23:28:59.177Z,4.03
2022-09-12T23:31:30.257Z,5.07
2022-09-12T23:33:59.050Z,5.05
2022-09-12T23:36:26.824Z,4.03
2022-09-12T23:38:55.272Z,6.25
2022-09-12T23:41:23.998Z,5.70
2022-09-12T23:43:50.431Z,6.28
2022-09-12T23:46:18.132Z,7.57
2022-09-12T23:48:44.691Z,6.05
2022-09-12T23:51:11.569Z,4.10
2022-09-12T23:53:38.382Z,4.82
2022-09-12T23:56:05.416Z,5.38
2022-09-12T23:58:32.280Z,4.70
